sensor_id;sensor_type;location;lat;lon;timestamp;pressure;altitude;pressure_sealevel;temperature;humidity
37066;BME280;22981;43.080;25.550;2023-02-28T00:01:23;100337.22;;;8.63;74.88
37066;BME280;22981;43.080;25.550;2023-02-28T00:03:50;100342.05;;;8.63;74.86
37066;BME280;22981;43.080;25.550;2023-02-28T00:06:18;100348.09;;;8.61;74.86
37066;BME280;22981;43.080;25.550;2023-02-28T00:08:47;100351.53;;;8.51;75.13
37066;BME280;22981;43.080;25.550;2023-02-28T00:11:15;100351.22;;;8.50;75.44
37066;BME280;22981;43.080;25.550;2023-02-28T00:13:45;100353.02;;;8.53;75.47
37066;BME280;22981;43.080;25.550;2023-02-28T00:16:18;100352.15;;;8.57;75.41
37066;BME280;22981;43.080;25.550;2023-02-28T00:18:46;100356.73;;;8.63;75.27
37066;BME280;22981;43.080;25.550;2023-02-28T00:21:14;100356.73;;;8.63;75.15
37066;BME280;22981;43.080;25.550;2023-02-28T00:23:42;100352.58;;;8.61;75.22
37066;BME280;22981;43.080;25.550;2023-02-28T00:26:10;100366.59;;;8.63;75.30
37066;BME280;22981;43.080;25.550;2023-02-28T00:28:37;100371.73;;;8.64;75.35
37066;BME280;22981;43.080;25.550;2023-02-28T00:31:05;100366.90;;;8.64;75.39
37066;BME280;22981;43.080;25.550;2023-02-28T00:33:33;100370.28;;;8.62;75.51
37066;BME280;22981;43.080;25.550;2023-02-28T00:36:08;100363.72;;;8.64;75.53
37066;BME280;22981;43.080;25.550;2023-02-28T00:38:37;100359.55;;;8.66;75.56
37066;BME280;22981;43.080;25.550;2023-02-28T00:41:06;100359.87;;;8.67;75.59
37066;BME280;22981;43.080;25.550;2023-02-28T00:43:36;100353.00;;;8.68;75.59
37066;BME280;22981;43.080;25.550;2023-02-28T00:46:04;100354.67;;;8.69;75.60
37066;BME280;22981;43.080;25.550;2023-02-28T00:48:32;100353.82;;;8.69;75.58
37066;BME280;22981;43.080;25.550;2023-02-28T00:51:00;100360.06;;;8.65;75.59
37066;BME280;22981;43.080;25.550;2023-02-28T00:53:28;100355.09;;;8.62;75.76
37066;BME280;22981;43.080;25.550;2023-02-28T00:55:55;100362.39;;;8.64;75.77
37066;BME280;22981;43.080;25.550;2023-02-28T00:58:23;100367.56;;;8.66;75.78
37066;BME280;22981;43.080;25.550;2023-02-28T01:00:52;100366.34;;;8.68;75.72
37066;BME280;22981;43.080;25.550;2023-02-28T01:03:20;100366.17;;;8.70;75.64
37066;BME280;22981;43.080;25.550;2023-02-28T01:05:49;100361.47;;;8.72;75.54
37066;BME280;22981;43.080;25.550;2023-02-28T01:08:16;100362.29;;;8.72;75.41
37066;BME280;22981;43.080;25.550;2023-02-28T01:10:44;100355.11;;;8.73;75.39
37066;BME280;22981;43.080;25.550;2023-02-28T01:13:12;100351.81;;;8.71;75.32
37066;BME280;22981;43.080;25.550;2023-02-28T01:15:43;100345.19;;;8.67;75.40
37066;BME280;22981;43.080;25.550;2023-02-28T01:18:10;100347.70;;;8.64;75.52
37066;BME280;22981;43.080;25.550;2023-02-28T01:20:38;100343.23;;;8.61;75.59
37066;BME280;22981;43.080;25.550;2023-02-28T01:23:06;100331.11;;;8.58;75.75
37066;BME280;22981;43.080;25.550;2023-02-28T01:25:37;100328.08;;;8.61;75.83
37066;BME280;22981;43.080;25.550;2023-02-28T01:28:05;100317.20;;;8.63;75.77
37066;BME280;22981;43.080;25.550;2023-02-28T01:30:33;100322.39;;;8.60;75.78
37066;BME280;22981;43.080;25.550;2023-02-28T01:33:00;100317.45;;;8.57;75.86
37066;BME280;22981;43.080;25.550;2023-02-28T01:35:28;100323.97;;;8.55;76.00
37066;BME280;22981;43.080;25.550;2023-02-28T01:37:55;100327.40;;;8.48;76.18
37066;BME280;22981;43.080;25.550;2023-02-28T01:40:23;100331.09;;;8.43;76.36
37066;BME280;22981;43.080;25.550;2023-02-28T01:42:50;100332.67;;;8.38;76.49
37066;BME280;22981;43.080;25.550;2023-02-28T01:45:27;100327.19;;;8.35;76.68
37066;BME280;22981;43.080;25.550;2023-02-28T01:48:02;100331.39;;;8.29;76.77
37066;BME280;22981;43.080;25.550;2023-02-28T01:50:28;100332.41;;;8.28;76.93
37066;BME280;22981;43.080;25.550;2023-02-28T01:52:58;100335.23;;;8.31;76.94
37066;BME280;22981;43.080;25.550;2023-02-28T01:55:27;100338.22;;;8.32;76.94
37066;BME280;22981;43.080;25.550;2023-02-28T01:57:58;100353.87;;;8.35;77.04
37066;BME280;22981;43.080;25.550;2023-02-28T02:00:27;100347.30;;;8.42;76.99
37066;BME280;22981;43.080;25.550;2023-02-28T02:02:58;100348.75;;;8.48;76.89
37066;BME280;22981;43.080;25.550;2023-02-28T02:05:29;100342.45;;;8.56;76.74
37066;BME280;22981;43.080;25.550;2023-02-28T02:08:03;100339.63;;;8.58;76.66
37066;BME280;22981;43.080;25.550;2023-02-28T02:10:45;100341.27;;;8.59;76.64
37066;BME280;22981;43.080;25.550;2023-02-28T02:23:57;100373.67;;;8.41;77.12
37066;BME280;22981;43.080;25.550;2023-02-28T02:29:33;100372.39;;;8.33;77.33
37066;BME280;22981;43.080;25.550;2023-02-28T02:37:38;100367.73;;;8.31;77.55
37066;BME280;22981;43.080;25.550;2023-02-28T02:40:09;100367.38;;;8.34;77.48
37066;BME280;22981;43.080;25.550;2023-02-28T02:43:06;100370.69;;;8.40;77.48
37066;BME280;22981;43.080;25.550;2023-02-28T02:45:45;100377.95;;;8.46;77.40
37066;BME280;22981;43.080;25.550;2023-02-28T02:48:11;100385.41;;;8.50;77.20
37066;BME280;22981;43.080;25.550;2023-02-28T02:50:46;100384.89;;;8.51;77.09
37066;BME280;22981;43.080;25.550;2023-02-28T02:53:11;100387.76;;;8.49;77.05
37066;BME280;22981;43.080;25.550;2023-02-28T02:55:42;100399.61;;;8.47;77.13
37066;BME280;22981;43.080;25.550;2023-02-28T02:58:18;100401.97;;;8.46;77.12
37066;BME280;22981;43.080;25.550;2023-02-28T03:00:50;100401.77;;;8.47;77.04
37066;BME280;22981;43.080;25.550;2023-02-28T03:03:19;100405.10;;;8.49;76.93
37066;BME280;22981;43.080;25.550;2023-02-28T03:05:50;100396.08;;;8.50;76.75
37066;BME280;22981;43.080;25.550;2023-02-28T03:08:18;100400.91;;;8.51;76.70
37066;BME280;22981;43.080;25.550;2023-02-28T03:10:50;100395.25;;;8.50;76.72
37066;BME280;22981;43.080;25.550;2023-02-28T03:16:34;100394.28;;;8.47;76.72
37066;BME280;22981;43.080;25.550;2023-02-28T03:24:18;100403.37;;;8.38;76.43
37066;BME280;22981;43.080;25.550;2023-02-28T03:26:52;100415.55;;;8.40;76.41
37066;BME280;22981;43.080;25.550;2023-02-28T03:29:37;100419.03;;;8.41;76.37
37066;BME280;22981;43.080;25.550;2023-02-28T03:32:08;100416.21;;;8.38;76.36
37066;BME280;22981;43.080;25.550;2023-02-28T03:34:39;100411.23;;;8.35;76.33
37066;BME280;22981;43.080;25.550;2023-02-28T03:37:12;100411.08;;;8.33;76.34
37066;BME280;22981;43.080;25.550;2023-02-28T03:39:58;100410.61;;;8.29;76.39
37066;BME280;22981;43.080;25.550;2023-02-28T03:42:19;100413.31;;;8.25;76.36
37066;BME280;22981;43.080;25.550;2023-02-28T03:44:59;100399.84;;;8.22;76.45
37066;BME280;22981;43.080;25.550;2023-02-28T03:50:13;100397.34;;;8.21;76.51
37066;BME280;22981;43.080;25.550;2023-02-28T03:52:43;100391.18;;;8.20;76.42
37066;BME280;22981;43.080;25.550;2023-02-28T03:55:13;100389.34;;;8.21;76.42
37066;BME280;22981;43.080;25.550;2023-02-28T03:58:01;100384.20;;;8.19;76.42
37066;BME280;22981;43.080;25.550;2023-02-28T04:00:36;100374.20;;;8.17;76.54
37066;BME280;22981;43.080;25.550;2023-02-28T04:03:04;100371.22;;;8.16;76.52
37066;BME280;22981;43.080;25.550;2023-02-28T04:05:32;100378.20;;;8.17;76.48
37066;BME280;22981;43.080;25.550;2023-02-28T04:08:05;100380.36;;;8.18;76.54
37066;BME280;22981;43.080;25.550;2023-02-28T04:10:33;100381.02;;;8.20;76.51
37066;BME280;22981;43.080;25.550;2023-02-28T04:13:00;100383.69;;;8.20;76.42
37066;BME280;22981;43.080;25.550;2023-02-28T04:15:28;100391.69;;;8.20;76.46
37066;BME280;22981;43.080;25.550;2023-02-28T04:17:55;100404.20;;;8.19;76.41
37066;BME280;22981;43.080;25.550;2023-02-28T04:20:23;100405.06;;;8.16;76.40
37066;BME280;22981;43.080;25.550;2023-02-28T04:22:50;100408.78;;;8.11;76.45
37066;BME280;22981;43.080;25.550;2023-02-28T04:25:18;100410.66;;;8.06;76.56
37066;BME280;22981;43.080;25.550;2023-02-28T04:27:46;100413.17;;;8.03;76.68
37066;BME280;22981;43.080;25.550;2023-02-28T04:30:13;100405.91;;;7.97;76.75
37066;BME280;22981;43.080;25.550;2023-02-28T04:32:41;100410.86;;;8.00;76.86
37066;BME280;22981;43.080;25.550;2023-02-28T04:35:08;100407.17;;;8.06;76.82
37066;BME280;22981;43.080;25.550;2023-02-28T04:37:36;100406.47;;;8.08;76.82
37066;BME280;22981;43.080;25.550;2023-02-28T04:40:04;100400.47;;;8.10;76.68
37066;BME280;22981;43.080;25.550;2023-02-28T04:42:31;100406.28;;;8.09;76.70
37066;BME280;22981;43.080;25.550;2023-02-28T04:45:05;100408.47;;;8.10;76.67
37066;BME280;22981;43.080;25.550;2023-02-28T04:47:29;100413.10;;;8.12;76.65
37066;BME280;22981;43.080;25.550;2023-02-28T04:49:57;100414.24;;;8.13;76.67
37066;BME280;22981;43.080;25.550;2023-02-28T04:52:25;100416.05;;;8.17;76.70
37066;BME280;22981;43.080;25.550;2023-02-28T04:54:54;100414.55;;;8.18;76.64
37066;BME280;22981;43.080;25.550;2023-02-28T04:57:21;100408.52;;;8.20;76.61
37066;BME280;22981;43.080;25.550;2023-02-28T04:59:49;100412.17;;;8.23;76.56
37066;BME280;22981;43.080;25.550;2023-02-28T05:02:16;100408.80;;;8.25;76.50
37066;BME280;22981;43.080;25.550;2023-02-28T05:04:44;100415.16;;;8.24;76.43
37066;BME280;22981;43.080;25.550;2023-02-28T05:07:12;100417.98;;;8.27;76.45
37066;BME280;22981;43.080;25.550;2023-02-28T05:09:39;100424.96;;;8.28;76.41
37066;BME280;22981;43.080;25.550;2023-02-28T05:12:08;100423.75;;;8.31;76.30
37066;BME280;22981;43.080;25.550;2023-02-28T05:14:36;100424.92;;;8.32;76.17
37066;BME280;22981;43.080;25.550;2023-02-28T05:17:03;100429.75;;;8.33;76.07
37066;BME280;22981;43.080;25.550;2023-02-28T05:19:31;100432.23;;;8.34;76.07
37066;BME280;22981;43.080;25.550;2023-02-28T05:21:59;100436.23;;;8.34;76.09
37066;BME280;22981;43.080;25.550;2023-02-28T05:24:26;100434.07;;;8.34;76.08
37066;BME280;22981;43.080;25.550;2023-02-28T05:26:55;100430.38;;;8.35;76.04
37066;BME280;22981;43.080;25.550;2023-02-28T05:29:22;100434.23;;;8.36;75.94
37066;BME280;22981;43.080;25.550;2023-02-28T05:31:50;100432.41;;;8.37;75.79
37066;BME280;22981;43.080;25.550;2023-02-28T05:34:17;100428.89;;;8.36;75.71
37066;BME280;22981;43.080;25.550;2023-02-28T05:36:45;100427.23;;;8.35;75.59
37066;BME280;22981;43.080;25.550;2023-02-28T05:39:13;100428.06;;;8.36;75.49
37066;BME280;22981;43.080;25.550;2023-02-28T05:41:42;100433.05;;;8.35;75.43
37066;BME280;22981;43.080;25.550;2023-02-28T05:44:10;100434.89;;;8.34;75.45
37066;BME280;22981;43.080;25.550;2023-02-28T05:46:38;100441.24;;;8.37;75.47
37066;BME280;22981;43.080;25.550;2023-02-28T05:49:06;100447.41;;;8.38;75.36
37066;BME280;22981;43.080;25.550;2023-02-28T05:51:33;100455.22;;;8.39;75.37
37066;BME280;22981;43.080;25.550;2023-02-28T05:54:02;100451.05;;;8.41;75.32
37066;BME280;22981;43.080;25.550;2023-02-28T05:56:30;100460.20;;;8.42;75.34
37066;BME280;22981;43.080;25.550;2023-02-28T05:58:57;100461.38;;;8.44;75.35
37066;BME280;22981;43.080;25.550;2023-02-28T06:01:41;100460.04;;;8.44;75.39
37066;BME280;22981;43.080;25.550;2023-02-28T06:04:07;100456.98;;;8.47;75.38
37066;BME280;22981;43.080;25.550;2023-02-28T06:06:34;100457.14;;;8.49;75.25
37066;BME280;22981;43.080;25.550;2023-02-28T06:09:04;100451.80;;;8.49;75.24
37066;BME280;22981;43.080;25.550;2023-02-28T06:11:32;100449.48;;;8.46;75.37
37066;BME280;22981;43.080;25.550;2023-02-28T06:14:00;100450.28;;;8.51;75.44
37066;BME280;22981;43.080;25.550;2023-02-28T06:16:29;100446.43;;;8.53;75.30
37066;BME280;22981;43.080;25.550;2023-02-28T06:18:59;100451.58;;;8.55;75.20
37066;BME280;22981;43.080;25.550;2023-02-28T06:21:27;100454.75;;;8.55;75.22
37066;BME280;22981;43.080;25.550;2023-02-28T06:23:56;100458.56;;;8.56;75.28
37066;BME280;22981;43.080;25.550;2023-02-28T06:26:24;100467.23;;;8.58;75.34
37066;BME280;22981;43.080;25.550;2023-02-28T06:28:52;100474.37;;;8.62;75.32
37066;BME280;22981;43.080;25.550;2023-02-28T06:31:21;100474.92;;;8.57;75.17
37066;BME280;22981;43.080;25.550;2023-02-28T06:33:49;100475.51;;;8.48;75.22
37066;BME280;22981;43.080;25.550;2023-02-28T06:36:17;100486.57;;;8.41;75.39
37066;BME280;22981;43.080;25.550;2023-02-28T06:38:45;100482.41;;;8.35;75.58
37066;BME280;22981;43.080;25.550;2023-02-28T06:41:14;100476.66;;;8.27;75.78
37066;BME280;22981;43.080;25.550;2023-02-28T06:43:43;100470.98;;;8.26;75.95
37066;BME280;22981;43.080;25.550;2023-02-28T06:46:13;100467.77;;;8.31;75.82
37066;BME280;22981;43.080;25.550;2023-02-28T06:48:42;100469.11;;;8.31;75.64
37066;BME280;22981;43.080;25.550;2023-02-28T06:51:13;100471.61;;;8.32;75.64
37066;BME280;22981;43.080;25.550;2023-02-28T06:53:41;100475.58;;;8.36;75.64
37066;BME280;22981;43.080;25.550;2023-02-28T06:56:14;100469.22;;;8.41;75.65
37066;BME280;22981;43.080;25.550;2023-02-28T06:58:40;100474.33;;;8.47;75.55
37066;BME280;22981;43.080;25.550;2023-02-28T07:01:08;100470.17;;;8.48;75.52
37066;BME280;22981;43.080;25.550;2023-02-28T07:03:36;100468.45;;;8.51;75.49
37066;BME280;22981;43.080;25.550;2023-02-28T07:06:05;100470.92;;;8.57;75.42
37066;BME280;22981;43.080;25.550;2023-02-28T07:08:34;100476.70;;;8.61;75.28
37066;BME280;22981;43.080;25.550;2023-02-28T07:11:07;100473.52;;;8.65;75.20
37066;BME280;22981;43.080;25.550;2023-02-28T07:13:35;100475.48;;;8.67;75.14
37066;BME280;22981;43.080;25.550;2023-02-28T07:16:05;100475.80;;;8.68;75.15
37066;BME280;22981;43.080;25.550;2023-02-28T07:18:33;100466.95;;;8.68;75.21
37066;BME280;22981;43.080;25.550;2023-02-28T07:21:03;100470.09;;;8.71;75.27
37066;BME280;22981;43.080;25.550;2023-02-28T07:23:30;100472.02;;;8.77;75.22
37066;BME280;22981;43.080;25.550;2023-02-28T07:25:58;100468.17;;;8.80;75.17
37066;BME280;22981;43.080;25.550;2023-02-28T07:28:26;100463.66;;;8.81;75.21
37066;BME280;22981;43.080;25.550;2023-02-28T07:30:54;100462.67;;;8.77;75.29
37066;BME280;22981;43.080;25.550;2023-02-28T07:33:21;100460.86;;;8.78;75.39
37066;BME280;22981;43.080;25.550;2023-02-28T07:35:50;100472.69;;;8.80;75.46
37066;BME280;22981;43.080;25.550;2023-02-28T07:38:17;100476.69;;;8.80;75.53
37066;BME280;22981;43.080;25.550;2023-02-28T07:40:45;100479.00;;;8.83;75.49
37066;BME280;22981;43.080;25.550;2023-02-28T07:43:13;100472.37;;;8.78;75.46
37066;BME280;22981;43.080;25.550;2023-02-28T07:45:40;100469.04;;;8.76;75.45
37066;BME280;22981;43.080;25.550;2023-02-28T07:48:08;100478.73;;;8.73;75.48
37066;BME280;22981;43.080;25.550;2023-02-28T07:50:36;100479.44;;;8.71;75.43
37066;BME280;22981;43.080;25.550;2023-02-28T07:53:04;100492.47;;;8.70;75.44
37066;BME280;22981;43.080;25.550;2023-02-28T07:55:31;100498.13;;;8.71;75.50
37066;BME280;22981;43.080;25.550;2023-02-28T07:57:59;100504.61;;;8.73;75.49
37066;BME280;22981;43.080;25.550;2023-02-28T08:00:27;100498.77;;;8.73;75.48
37066;BME280;22981;43.080;25.550;2023-02-28T08:02:55;100502.92;;;8.76;75.42
37066;BME280;22981;43.080;25.550;2023-02-28T08:05:22;100504.25;;;8.76;75.38
37066;BME280;22981;43.080;25.550;2023-02-28T08:07:50;100505.40;;;8.77;75.40
37066;BME280;22981;43.080;25.550;2023-02-28T08:10:18;100502.73;;;8.77;75.40
37066;BME280;22981;43.080;25.550;2023-02-28T08:12:45;100509.55;;;8.80;75.31
37066;BME280;22981;43.080;25.550;2023-02-28T08:15:13;100506.61;;;8.75;75.27
37066;BME280;22981;43.080;25.550;2023-02-28T08:17:40;100504.06;;;8.77;75.23
37066;BME280;22981;43.080;25.550;2023-02-28T08:20:09;100503.75;;;8.76;75.16
37066;BME280;22981;43.080;25.550;2023-02-28T08:22:36;100508.11;;;8.73;75.19
37066;BME280;22981;43.080;25.550;2023-02-28T08:25:04;100508.58;;;8.77;75.17
37066;BME280;22981;43.080;25.550;2023-02-28T08:27:33;100508.03;;;8.82;75.10
37066;BME280;22981;43.080;25.550;2023-02-28T08:30:01;100512.03;;;8.82;75.14
37066;BME280;22981;43.080;25.550;2023-02-28T08:32:29;100514.38;;;8.81;75.10
37066;BME280;22981;43.080;25.550;2023-02-28T08:34:57;100513.72;;;8.83;75.02
37066;BME280;22981;43.080;25.550;2023-02-28T08:37:25;100512.03;;;8.82;74.95
37066;BME280;22981;43.080;25.550;2023-02-28T08:39:52;100511.52;;;8.82;74.95
37066;BME280;22981;43.080;25.550;2023-02-28T08:42:20;100507.52;;;8.82;74.84
37066;BME280;22981;43.080;25.550;2023-02-28T08:44:47;100511.99;;;8.86;74.85
37066;BME280;22981;43.080;25.550;2023-02-28T08:47:15;100508.65;;;8.88;74.73
37066;BME280;22981;43.080;25.550;2023-02-28T08:49:43;100514.50;;;8.87;74.72
37066;BME280;22981;43.080;25.550;2023-02-28T08:52:10;100510.15;;;8.86;74.73
37066;BME280;22981;43.080;25.550;2023-02-28T08:54:38;100508.14;;;8.88;74.69
37066;BME280;22981;43.080;25.550;2023-02-28T08:57:05;100504.38;;;8.83;74.71
37066;BME280;22981;43.080;25.550;2023-02-28T08:59:33;100515.72;;;8.81;74.88
37066;BME280;22981;43.080;25.550;2023-02-28T09:02:01;100520.42;;;8.78;75.04
37066;BME280;22981;43.080;25.550;2023-02-28T09:04:29;100519.77;;;8.76;75.07
37066;BME280;22981;43.080;25.550;2023-02-28T09:06:57;100513.92;;;8.77;75.08
37066;BME280;22981;43.080;25.550;2023-02-28T09:09:24;100514.42;;;8.76;75.13
37066;BME280;22981;43.080;25.550;2023-02-28T09:11:54;100519.25;;;8.77;75.22
37066;BME280;22981;43.080;25.550;2023-02-28T09:14:21;100517.06;;;8.81;75.25
37066;BME280;22981;43.080;25.550;2023-02-28T09:16:49;100514.54;;;8.83;75.25
37066;BME280;22981;43.080;25.550;2023-02-28T09:19:16;100515.05;;;8.83;75.25
37066;BME280;22981;43.080;25.550;2023-02-28T09:21:44;100515.88;;;8.83;75.23
37066;BME280;22981;43.080;25.550;2023-02-28T09:24:11;100522.59;;;8.79;75.27
37066;BME280;22981;43.080;25.550;2023-02-28T09:26:41;100526.95;;;8.76;75.29
37066;BME280;22981;43.080;25.550;2023-02-28T09:29:08;100522.94;;;8.76;75.29
37066;BME280;22981;43.080;25.550;2023-02-28T09:31:37;100522.39;;;8.81;75.27
37066;BME280;22981;43.080;25.550;2023-02-28T09:34:05;100528.52;;;8.85;75.20
37066;BME280;22981;43.080;25.550;2023-02-28T09:36:33;100522.00;;;8.88;75.15
37066;BME280;22981;43.080;25.550;2023-02-28T09:39:01;100528.36;;;8.87;75.19
37066;BME280;22981;43.080;25.550;2023-02-28T09:41:35;100535.00;;;8.91;75.19
37066;BME280;22981;43.080;25.550;2023-02-28T09:44:03;100534.18;;;8.86;75.09
37066;BME280;22981;43.080;25.550;2023-02-28T09:46:43;100537.08;;;8.81;75.13
37066;BME280;22981;43.080;25.550;2023-02-28T09:49:19;100536.41;;;8.83;75.17
37066;BME280;22981;43.080;25.550;2023-02-28T09:51:56;100528.84;;;8.86;75.07
37066;BME280;22981;43.080;25.550;2023-02-28T09:54:28;100529.81;;;8.89;75.02
37066;BME280;22981;43.080;25.550;2023-02-28T09:57:16;100524.80;;;8.90;75.01
37066;BME280;22981;43.080;25.550;2023-02-28T09:59:39;100524.63;;;8.92;75.08
37066;BME280;22981;43.080;25.550;2023-02-28T10:02:16;100525.45;;;8.92;75.08
37066;BME280;22981;43.080;25.550;2023-02-28T10:10:07;100539.44;;;8.94;75.06
37066;BME280;22981;43.080;25.550;2023-02-28T10:12:36;100537.79;;;8.93;75.06
37066;BME280;22981;43.080;25.550;2023-02-28T10:15:07;100533.27;;;8.94;75.12
37066;BME280;22981;43.080;25.550;2023-02-28T10:17:39;100530.76;;;8.96;75.07
37066;BME280;22981;43.080;25.550;2023-02-28T10:20:11;100533.74;;;8.97;75.11
37066;BME280;22981;43.080;25.550;2023-02-28T10:22:52;100523.57;;;8.97;75.06
37066;BME280;22981;43.080;25.550;2023-02-28T10:25:25;100519.20;;;9.00;75.07
37066;BME280;22981;43.080;25.550;2023-02-28T10:28:12;100506.13;;;9.05;75.02
37066;BME280;22981;43.080;25.550;2023-02-28T10:30:43;100506.13;;;9.05;74.92
37066;BME280;22981;43.080;25.550;2023-02-28T10:33:30;100500.27;;;9.06;74.80
37066;BME280;22981;43.080;25.550;2023-02-28T10:35:44;100496.27;;;9.06;74.76
37066;BME280;22981;43.080;25.550;2023-02-28T10:38:39;100501.80;;;9.04;74.75
37066;BME280;22981;43.080;25.550;2023-02-28T10:40:45;100496.77;;;9.05;74.86
37066;BME280;22981;43.080;25.550;2023-02-28T10:43:18;100487.23;;;9.07;74.87
37066;BME280;22981;43.080;25.550;2023-02-28T10:45:58;100493.23;;;9.09;74.82
37066;BME280;22981;43.080;25.550;2023-02-28T10:48:38;100494.22;;;9.08;74.69
37066;BME280;22981;43.080;25.550;2023-02-28T10:51:16;100491.44;;;9.05;74.64
37066;BME280;22981;43.080;25.550;2023-02-28T10:53:51;100495.44;;;9.05;74.67
37066;BME280;22981;43.080;25.550;2023-02-28T10:56:21;100493.08;;;9.06;74.69
37066;BME280;22981;43.080;25.550;2023-02-28T10:58:58;100486.36;;;9.10;74.67
37066;BME280;22981;43.080;25.550;2023-02-28T11:06:59;100470.64;;;9.11;74.72
37066;BME280;22981;43.080;25.550;2023-02-28T11:09:33;100475.98;;;9.11;74.61
37066;BME280;22981;43.080;25.550;2023-02-28T11:12:19;100475.16;;;9.11;74.59
37066;BME280;22981;43.080;25.550;2023-02-28T11:14:40;100471.03;;;9.08;74.70
37066;BME280;22981;43.080;25.550;2023-02-28T11:17:14;100475.52;;;9.08;74.78
37066;BME280;22981;43.080;25.550;2023-02-28T11:19:46;100470.11;;;9.01;74.79
37066;BME280;22981;43.080;25.550;2023-02-28T11:22:20;100465.59;;;9.01;74.97
37066;BME280;22981;43.080;25.550;2023-02-28T11:24:51;100458.41;;;9.02;75.00
37066;BME280;22981;43.080;25.550;2023-02-28T11:30:00;100456.80;;;8.97;74.99
37066;BME280;22981;43.080;25.550;2023-02-28T11:32:28;100458.65;;;8.96;75.05
37066;BME280;22981;43.080;25.550;2023-02-28T11:38:00;100461.44;;;8.99;75.01
37066;BME280;22981;43.080;25.550;2023-02-28T11:46:47;100467.33;;;8.94;74.95
37066;BME280;22981;43.080;25.550;2023-02-28T11:54:54;100469.78;;;8.70;75.40
37066;BME280;22981;43.080;25.550;2023-02-28T11:57:41;100470.64;;;8.67;75.47
37066;BME280;22981;43.080;25.550;2023-02-28T12:05:49;100449.97;;;8.65;75.72
37066;BME280;22981;43.080;25.550;2023-02-28T12:13:49;100447.25;;;8.54;75.82
37066;BME280;22981;43.080;25.550;2023-02-28T12:19:06;100441.68;;;8.45;76.25
37066;BME280;22981;43.080;25.550;2023-02-28T12:27:02;100455.62;;;8.51;76.19
37066;BME280;22981;43.080;25.550;2023-02-28T12:32:26;100464.64;;;8.50;76.31
37066;BME280;22981;43.080;25.550;2023-02-28T12:35:00;100462.83;;;8.46;76.30
37066;BME280;22981;43.080;25.550;2023-02-28T12:37:29;100476.22;;;8.42;76.38
37066;BME280;22981;43.080;25.550;2023-02-28T12:40:02;100470.75;;;8.40;76.50
37066;BME280;22981;43.080;25.550;2023-02-28T12:42:35;100459.38;;;8.42;76.56
37066;BME280;22981;43.080;25.550;2023-02-28T12:47:40;100443.21;;;8.39;76.61
37066;BME280;22981;43.080;25.550;2023-02-28T12:50:10;100440.90;;;8.36;76.65
37066;BME280;22981;43.080;25.550;2023-02-28T12:57:50;100448.19;;;8.23;76.94
37066;BME280;22981;43.080;25.550;2023-02-28T13:00:19;100437.93;;;8.12;77.05
37066;BME280;22981;43.080;25.550;2023-02-28T13:02:52;100455.14;;;8.10;77.18
37066;BME280;22981;43.080;25.550;2023-02-28T13:11:03;100454.69;;;8.02;77.38
37066;BME280;22981;43.080;25.550;2023-02-28T13:13:31;100462.88;;;7.96;77.39
37066;BME280;22981;43.080;25.550;2023-02-28T13:16:10;100462.41;;;7.97;77.55
37066;BME280;22981;43.080;25.550;2023-02-28T13:18:40;100467.73;;;7.97;77.58
37066;BME280;22981;43.080;25.550;2023-02-28T13:21:21;100475.26;;;7.93;77.63
37066;BME280;22981;43.080;25.550;2023-02-28T13:26:16;100472.64;;;7.85;77.94
37066;BME280;22981;43.080;25.550;2023-02-28T13:31:20;100472.86;;;7.80;77.99
37066;BME280;22981;43.080;25.550;2023-02-28T13:36:32;100465.23;;;7.72;78.23
37066;BME280;22981;43.080;25.550;2023-02-28T13:38:58;100466.25;;;7.71;78.33
37066;BME280;22981;43.080;25.550;2023-02-28T13:41:40;100466.25;;;7.71;78.40
37066;BME280;22981;43.080;25.550;2023-02-28T13:44:19;100464.24;;;7.69;78.33
37066;BME280;22981;43.080;25.550;2023-02-28T13:49:30;100461.60;;;7.65;78.35
37066;BME280;22981;43.080;25.550;2023-02-28T13:55:08;100468.11;;;7.67;78.37
37066;BME280;22981;43.080;25.550;2023-02-28T14:08:55;100463.44;;;7.65;78.49
37066;BME280;22981;43.080;25.550;2023-02-28T14:11:41;100462.30;;;7.63;78.46
37066;BME280;22981;43.080;25.550;2023-02-28T14:14:06;100461.13;;;7.62;78.56
37066;BME280;22981;43.080;25.550;2023-02-28T14:16:45;100460.67;;;7.58;78.67
37066;BME280;22981;43.080;25.550;2023-02-28T14:19:25;100454.33;;;7.59;78.68
37066;BME280;22981;43.080;25.550;2023-02-28T14:22:04;100457.17;;;7.53;78.63
37066;BME280;22981;43.080;25.550;2023-02-28T14:27:46;100455.05;;;7.45;78.76
37066;BME280;22981;43.080;25.550;2023-02-28T14:30:17;100458.75;;;7.40;78.95
37066;BME280;22981;43.080;25.550;2023-02-28T14:40:43;100462.80;;;7.27;79.48
37066;BME280;22981;43.080;25.550;2023-02-28T14:43:23;100473.30;;;7.29;79.53
37066;BME280;22981;43.080;25.550;2023-02-28T14:45:54;100475.78;;;7.31;79.55
37066;BME280;22981;43.080;25.550;2023-02-28T14:48:22;100474.94;;;7.34;79.46
37066;BME280;22981;43.080;25.550;2023-02-28T14:50:56;100479.58;;;7.36;79.36
37066;BME280;22981;43.080;25.550;2023-02-28T14:53:26;100480.27;;;7.34;79.32
37066;BME280;22981;43.080;25.550;2023-02-28T14:55:54;100484.28;;;7.30;79.33
37066;BME280;22981;43.080;25.550;2023-02-28T14:58:32;100491.45;;;7.25;79.44
37066;BME280;22981;43.080;25.550;2023-02-28T15:00:58;100492.97;;;7.24;79.50
37066;BME280;22981;43.080;25.550;2023-02-28T15:03:37;100493.45;;;7.23;79.52
37066;BME280;22981;43.080;25.550;2023-02-28T15:06:16;100496.47;;;7.24;79.47
37066;BME280;22981;43.080;25.550;2023-02-28T15:08:45;100495.13;;;7.24;79.47
37066;BME280;22981;43.080;25.550;2023-02-28T15:11:17;100497.95;;;7.23;79.47
37066;BME280;22981;43.080;25.550;2023-02-28T15:13:49;100502.31;;;7.20;79.52
37066;BME280;22981;43.080;25.550;2023-02-28T15:16:20;100503.80;;;7.18;79.57